»·PEaware :: SHOOTER11 KLSV-KINS

SHOOTER11 :: KLSV-KINS

FLIGHT INFORMATION

Flight Status: Arrived
Operator: Unknown
More flights by this operator :: More flights under this callsign
Pilot: Chris L. (3519)
Aircraft: FAIRCHILD A-10 THUNDERBOLT 2
(A10)
More flights by this aircraft type
Origin: KLSV Nellis AFB
United States
Destination: KINS Indian Springs AF Aux
United States
More flights between these airports :: More routes between these airports
Route: DREAM4 JUNNO
File this flight plan on PilotEdge
Remarks: Range work 64B
Altitude:
(Current/Filed)
17,000ft
Speed:
(Current/Filed)
210kts
Departed: 11-Nov-16 06:16 PM
Arrived: 11-Nov-16 07:09 PM
Distance/Time
Traveled:
37nm/0:53
Distance/Time
To Go:
Arrived

Flight Plot

Page will automatically refresh every two minutes.


Map Options




Map Legend


Flown Route
Filed Route
Departure Airport
Arrival Airport
Navaid (VOR, NDB)
Fix

Horizontal Profiles

Position Reports

Time Latitude Longitude Heading Altitude Ground
Speed
11-Nov-16 17:57 36.229865 -115.024937 271 1850ft 0kts
11-Nov-16 17:58 36.229865 -115.024937 271 1850ft 0kts
11-Nov-16 17:59 36.229865 -115.024937 271 1850ft 0kts
11-Nov-16 18:00 36.229865 -115.024937 271 1850ft 0kts
11-Nov-16 18:01 36.229865 -115.024937 271 1850ft 0kts
11-Nov-16 18:02 36.229865 -115.024937 271 1850ft 0kts
11-Nov-16 18:03 36.229865 -115.024937 271 1850ft 0kts
11-Nov-16 18:04 36.229865 -115.024937 271 1850ft 0kts
11-Nov-16 18:05 36.229924 -115.025515 297 1850ft 10kts
11-Nov-16 18:06 36.230747 -115.031054 269 1849ft 21kts
11-Nov-16 18:07 36.226029 -115.036715 217 1849ft 23kts
11-Nov-16 18:08 36.224330 -115.043271 311 1848ft 0kts
11-Nov-16 18:09 36.225391 -115.043643 40 1849ft 17kts
11-Nov-16 18:10 36.252559 -115.013812 41 2439ft 172kts
11-Nov-16 18:11 36.289615 -114.976091 42 4985ft 142kts
11-Nov-16 18:12 36.325843 -114.947839 358 6691ft 153kts
11-Nov-16 18:13 36.374185 -114.944023 5 8245ft 178kts
11-Nov-16 18:14 36.428678 -114.936000 2 9933ft 189kts
11-Nov-16 18:15 36.484037 -114.932555 355 11530ft 201kts
11-Nov-16 18:16 36.540682 -114.942339 335 12826ft 214kts
11-Nov-16 18:17 36.603336 -114.976292 335 12842ft 265kts
11-Nov-16 18:18 36.670799 -115.018820 320 13275ft 264kts
11-Nov-16 18:19 36.731738 -115.077816 321 13199ft 281kts
11-Nov-16 18:20 36.794874 -115.138612 321 13198ft 286kts
11-Nov-16 18:21 36.858236 -115.199722 321 13198ft 287kts
11-Nov-16 18:22 36.921793 -115.261131 321 13198ft 287kts
11-Nov-16 18:23 36.987213 -115.284540 21 13880ft 245kts
11-Nov-16 18:24 36.970933 -115.249952 206 7178ft 317kts
11-Nov-16 18:25 36.979501 -115.238505 3 4671ft 331kts
11-Nov-16 18:26 36.985919 -115.240439 173 4014ft 296kts
11-Nov-16 18:27 36.965585 -115.225347 316 5655ft 252kts
11-Nov-16 18:28 36.993312 -115.297783 253 8019ft 218kts
11-Nov-16 18:29 36.960588 -115.323689 72 9291ft 233kts
11-Nov-16 18:30 36.999878 -115.242067 56 8865ft 292kts
11-Nov-16 18:31 37.010459 -115.176033 238 9742ft 256kts
11-Nov-16 18:32 37.005705 -115.266112 282 9529ft 267kts
11-Nov-16 18:33 36.989931 -115.336065 158 9866ft 261kts
11-Nov-16 18:34 36.927843 -115.282719 135 9364ft 307kts
11-Nov-16 18:35 36.906775 -115.201486 7 8958ft 282kts
11-Nov-16 18:36 36.977396 -115.247634 324 9117ft 260kts
11-Nov-16 18:37 37.041366 -115.279576 56 11215ft 200kts
11-Nov-16 18:38 37.000225 -115.223969 161 8375ft 336kts
11-Nov-16 18:39 36.970894 -115.267699 306 10214ft 276kts
11-Nov-16 18:40 37.036877 -115.328432 339 9723ft 287kts
11-Nov-16 18:41 37.111481 -115.343454 354 11100ft 280kts
11-Nov-16 18:42 37.165227 -115.279326 86 9992ft 296kts
11-Nov-16 18:43 37.104191 -115.242786 181 11348ft 285kts
11-Nov-16 18:44 37.019439 -115.225614 160 6239ft 312kts
11-Nov-16 18:45 36.971520 -115.194361 61 6300ft 248kts
11-Nov-16 18:46 37.001458 -115.217541 157 3416ft 313kts
11-Nov-16 18:47 37.003363 -115.221906 298 3891ft 296kts
11-Nov-16 18:48 36.990282 -115.200456 164 5451ft 260kts
11-Nov-16 18:49 36.994501 -115.266751 228 5375ft 280kts
11-Nov-16 18:50 36.999809 -115.235764 8 4111ft 324kts
11-Nov-16 18:51 37.003144 -115.239780 191 4023ft 295kts
11-Nov-16 18:52 36.924890 -115.238737 44 5857ft 296kts
11-Nov-16 18:53 37.000822 -115.233702 358 3564ft 350kts
11-Nov-16 18:54 37.011922 -115.199399 176 5948ft 311kts
11-Nov-16 18:55 36.920301 -115.195041 177 5959ft 336kts
11-Nov-16 18:56 36.843419 -115.226199 211 9640ft 281kts
11-Nov-16 18:57 36.771290 -115.289716 220 9522ft 335kts
11-Nov-16 18:58 36.701921 -115.368792 210 9282ft 344kts
11-Nov-16 18:59 36.625866 -115.427695 260 9600ft 318kts
11-Nov-16 19:00 36.595452 -115.528197 233 9180ft 272kts
11-Nov-16 19:01 36.581498 -115.602969 273 4937ft 174kts
11-Nov-16 19:02 36.583250 -115.658752 271 3339ft 132kts
11-Nov-16 19:03 36.583554 -115.683001 239 3134ft 10kts
11-Nov-16 19:04 36.582021 -115.685811 189 3134ft 10kts
11-Nov-16 19:05 36.581566 -115.679682 87 3134ft 16kts
11-Nov-16 19:06 36.581359 -115.673344 71 3134ft 5kts
11-Nov-16 19:07 36.581837 -115.673218 1 3134ft 0kts
11-Nov-16 19:08 36.581837 -115.673218 1 3134ft 0kts

Navigation Log

Ident Type
Flight plan parsing failed, navigation log unavailable